createdAt,value
2023-04-05T00:00:19.267Z,102551.50
2023-04-05T00:05:30.058Z,102546.38
2023-04-05T00:10:34.853Z,102547.47
2023-04-05T00:15:38.087Z,102543.66
2023-04-05T00:20:41.603Z,102533.50
2023-04-05T00:25:46.300Z,102538.06
2023-04-05T00:30:52.428Z,102542.03
2023-04-05T00:35:55.433Z,102526.50
2023-04-05T00:40:59.711Z,102536.78
2023-04-05T00:46:03.285Z,102521.22
2023-04-05T00:51:09.622Z,102527.06
2023-04-05T00:56:14.851Z,102521.56
2023-04-05T01:01:20.389Z,102510.59
2023-04-05T01:06:33.090Z,102519.94
2023-04-05T01:11:40.528Z,102516.00
2023-04-05T01:16:43.652Z,102511.56
2023-04-05T01:22:17.004Z,102506.72
2023-04-05T01:27:29.471Z,102497.91
2023-04-05T01:32:45.205Z,102490.59
2023-04-05T01:37:56.874Z,102477.22
2023-04-05T01:43:03.044Z,102495.47
2023-04-05T01:48:08.068Z,102498.28
2023-04-05T01:53:11.410Z,102490.53
2023-04-05T01:58:14.567Z,102479.41
2023-04-05T02:03:18.990Z,102473.78
2023-04-05T02:08:21.989Z,102466.34
2023-04-05T02:13:25.912Z,102473.56
2023-04-05T02:18:31.970Z,102459.69
2023-04-05T02:23:36.091Z,102454.97
2023-04-05T02:28:39.092Z,102451.81
2023-04-05T02:33:43.910Z,102449.66
2023-04-05T02:38:46.869Z,102445.41
2023-04-05T02:43:52.223Z,102452.59
2023-04-05T02:48:56.570Z,102454.88
2023-04-05T02:54:03.456Z,102448.03
2023-04-05T02:59:11.549Z,102431.44
2023-04-05T03:04:17.399Z,102438.28
2023-04-05T03:09:20.895Z,102432.47
2023-04-05T03:14:30.120Z,102434.50
2023-04-05T03:19:35.831Z,102427.31
2023-04-05T03:25:00.904Z,102420.31
2023-04-05T03:30:04.171Z,102398.84
2023-04-05T03:35:13.373Z,102415.25
2023-04-05T03:40:20.782Z,102404.31
2023-04-05T03:45:25.173Z,102410.69
2023-04-05T03:50:32.030Z,102414.81
2023-04-05T03:55:35.023Z,102409.31
2023-04-05T04:00:41.870Z,102410.22
2023-04-05T04:05:57.211Z,102406.25
2023-04-05T04:11:00.504Z,102418.59
2023-04-05T04:16:07.237Z,102419.19
2023-04-05T04:21:35.905Z,102407.16
2023-04-05T04:26:49.048Z,102415.84
2023-04-05T04:32:26.905Z,102409.44
2023-04-05T04:37:53.701Z,102409.59
2023-04-05T04:43:18.181Z,102412.16
2023-04-05T04:48:53.449Z,102410.16
2023-04-05T04:54:09.373Z,102396.63
2023-04-05T04:59:12.435Z,102400.88
2023-04-05T05:04:16.770Z,102394.00
2023-04-05T05:09:22.535Z,102407.25
2023-04-05T05:14:29.802Z,102409.66
2023-04-05T05:19:32.790Z,102403.56
2023-04-05T05:24:37.558Z,102409.06
2023-04-05T05:29:41.482Z,102413.63
2023-04-05T05:34:45.231Z,102408.78
2023-04-05T05:39:52.343Z,102405.59
2023-04-05T05:44:55.419Z,102407.00
2023-04-05T05:49:58.985Z,102408.06
2023-04-05T05:55:03.498Z,102413.69
2023-04-05T06:00:09.815Z,102407.16
2023-04-05T06:05:15.952Z,102404.41
2023-04-05T06:10:20.928Z,102416.75
2023-04-05T06:15:24.036Z,102423.63
2023-04-05T06:20:27.130Z,102423.50
2023-04-05T06:25:38.014Z,102417.28
2023-04-05T06:30:41.223Z,102413.78
2023-04-05T06:35:44.364Z,102413.16
2023-04-05T06:40:51.743Z,102404.28
2023-04-05T06:45:57.560Z,102400.78
2023-04-05T06:51:02.361Z,102402.75
2023-04-05T06:56:07.325Z,102410.66
2023-04-05T07:01:11.515Z,102416.09
2023-04-05T07:06:15.186Z,102406.59
2023-04-05T07:11:19.664Z,102402.31
2023-04-05T07:16:23.879Z,102401.38
2023-04-05T07:21:27.156Z,102409.41
2023-04-05T07:26:35.105Z,102391.97
2023-04-05T07:31:41.714Z,102402.09
2023-04-05T07:36:44.740Z,102391.94
2023-04-05T07:41:49.322Z,102394.03
2023-04-05T07:46:52.501Z,102398.19
2023-04-05T07:51:56.843Z,102394.38
2023-04-05T07:57:01.383Z,102405.19
2023-04-05T08:02:13.795Z,102407.75
2023-04-05T08:07:17.324Z,102405.91
2023-04-05T08:12:21.844Z,102395.88
2023-04-05T08:17:27.242Z,102394.88
2023-04-05T08:22:31.989Z,102387.97
2023-04-05T08:27:36.680Z,102387.22
2023-04-05T08:32:40.154Z,102381.69
2023-04-05T08:37:43.501Z,102381.06
2023-04-05T08:42:57.283Z,102386.31
2023-04-05T08:48:00.450Z,102379.91
2023-04-05T08:53:03.589Z,102386.47
2023-04-05T08:58:14.276Z,102370.66
2023-04-05T09:03:19.840Z,102374.09
2023-04-05T09:08:22.919Z,102376.06
2023-04-05T09:13:27.428Z,102363.44
2023-04-05T09:18:32.143Z,102355.88
2023-04-05T09:23:35.795Z,102360.25
2023-04-05T09:28:43.960Z,102362.34
2023-04-05T09:33:47.952Z,102358.63
2023-04-05T09:38:54.097Z,102354.81
2023-04-05T09:43:58.546Z,102348.56
2023-04-05T09:49:04.019Z,102347.78
2023-04-05T09:54:08.383Z,102348.50
2023-04-05T09:59:13.858Z,102348.63
2023-04-05T10:04:18.917Z,102343.09
2023-04-05T10:09:23.254Z,102327.88
2023-04-05T10:14:27.839Z,102324.53
2023-04-05T10:19:52.196Z,102323.50
2023-04-05T10:25:01.138Z,102324.41
2023-04-05T10:30:11.351Z,102330.28
2023-04-05T10:35:18.515Z,102313.16
2023-04-05T10:40:23.536Z,102316.91
2023-04-05T10:45:29.471Z,102311.59
2023-04-05T10:50:33.895Z,102313.44
2023-04-05T10:55:40.565Z,102302.66
2023-04-05T11:00:46.092Z,102296.63
2023-04-05T11:05:49.447Z,102289.75
2023-04-05T11:10:54.930Z,102293.44
2023-04-05T11:16:11.734Z,102292.41
2023-04-05T11:21:22.801Z,102287.25
2023-04-05T11:26:32.162Z,102283.41
2023-04-05T11:31:36.970Z,102284.22
2023-04-05T11:36:46.013Z,102278.53
2023-04-05T11:41:55.553Z,102268.41
2023-04-05T11:47:00.050Z,102265.19
2023-04-05T11:52:12.752Z,102252.72
2023-04-05T11:57:17.465Z,102260.34
2023-04-05T12:02:22.793Z,102247.31
2023-04-05T12:07:29.742Z,102237.78
2023-04-05T12:12:38.230Z,102240.97
2023-04-05T12:17:47.781Z,102218.56
2023-04-05T12:22:56.229Z,102219.06
2023-04-05T12:28:05.876Z,102216.31
2023-04-05T12:33:11.001Z,102217.88
2023-04-05T12:38:17.670Z,102202.41
2023-04-05T12:43:20.731Z,102207.09
2023-04-05T12:48:26.271Z,102200.13
2023-04-05T12:53:29.527Z,102201.25
2023-04-05T12:58:37.342Z,102171.97
2023-04-05T13:03:45.955Z,102184.47
2023-04-05T13:08:52.821Z,102172.78
2023-04-05T13:13:56.734Z,102168.91
2023-04-05T13:19:01.159Z,102164.63
2023-04-05T13:24:04.275Z,102162.66
2023-04-05T13:29:08.437Z,102165.41
2023-04-05T13:34:13.028Z,102148.25
2023-04-05T13:39:16.116Z,102151.38
2023-04-05T13:44:19.427Z,102134.97
2023-04-05T13:49:23.943Z,102131.06
2023-04-05T13:54:27.167Z,102121.97
2023-04-05T13:59:30.356Z,102107.38
2023-04-05T14:04:34.909Z,102124.34
2023-04-05T14:09:38.010Z,102116.50
2023-04-05T14:14:41.094Z,102089.97
2023-04-05T14:19:45.632Z,102106.91
2023-04-05T14:24:51.290Z,102094.72
2023-04-05T14:29:57.125Z,102094.47
2023-04-05T14:35:02.053Z,102085.97
2023-04-05T14:40:05.796Z,102082.47
2023-04-05T14:45:10.656Z,102079.13
2023-04-05T14:50:15.951Z,102064.94
2023-04-05T14:55:19.292Z,102068.13
2023-04-05T15:00:25.158Z,102049.34
2023-04-05T15:05:29.709Z,102050.97
2023-04-05T15:10:32.874Z,102045.59
2023-04-05T15:15:35.982Z,102042.94
2023-04-05T15:20:40.461Z,102039.31
2023-04-05T15:25:43.586Z,102035.81
2023-04-05T15:30:46.848Z,102034.53
2023-04-05T15:35:51.804Z,102027.69
2023-04-05T15:40:57.007Z,102024.63
2023-04-05T15:46:00.155Z,102016.72
2023-04-05T15:51:05.098Z,102016.41
2023-04-05T15:56:08.406Z,102006.28
2023-04-05T16:01:14.629Z,102005.03
2023-04-05T16:06:19.319Z,101996.78
2023-04-05T16:11:23.030Z,102002.53
2023-04-05T16:16:38.627Z,102005.53
2023-04-05T16:21:53.864Z,101994.56
2023-04-05T16:26:57.007Z,101993.25
2023-04-05T16:32:00.735Z,101978.66
2023-04-05T16:37:05.617Z,101985.28
2023-04-05T16:42:09.097Z,101986.91
2023-04-05T16:47:12.372Z,101988.09
2023-04-05T16:52:16.965Z,101985.22
2023-04-05T16:57:20.160Z,101982.59
2023-04-05T17:02:23.590Z,101962.34
2023-04-05T17:07:28.149Z,101968.47
2023-04-05T17:12:31.714Z,101976.28
2023-04-05T17:17:34.968Z,101982.28
2023-04-05T17:22:40.016Z,101971.16
2023-04-05T17:27:43.092Z,101976.66
2023-04-05T17:32:46.289Z,101985.66
2023-04-05T17:37:53.001Z,101971.25
2023-04-05T17:42:56.119Z,101976.72
2023-04-05T17:47:59.346Z,101975.72
2023-04-05T17:53:04.687Z,101970.19
2023-04-05T17:58:07.844Z,101982.63
2023-04-05T18:03:13.216Z,101969.38
2023-04-05T18:08:18.225Z,101974.69
2023-04-05T18:13:21.805Z,101978.59
2023-04-05T18:18:25.715Z,101982.53
2023-04-05T18:23:30.667Z,101980.03
2023-04-05T18:28:33.798Z,101982.16
2023-04-05T18:33:37.885Z,101986.88
2023-04-05T18:38:42.399Z,101992.59
2023-04-05T18:43:46.123Z,101985.03
2023-04-05T18:48:57.408Z,101970.09
2023-04-05T18:54:02.918Z,101989.38
2023-04-05T18:59:06.460Z,101985.25
2023-04-05T19:04:10.530Z,101988.00
2023-04-05T19:09:16.724Z,101990.00
2023-04-05T19:14:20.135Z,102001.59
2023-04-05T19:19:23.454Z,102005.72
2023-04-05T19:24:28.983Z,102004.59
2023-04-05T19:29:32.616Z,102007.25
2023-04-05T19:34:38.277Z,102002.19
2023-04-05T19:39:42.943Z,101999.28
2023-04-05T19:44:54.925Z,101994.28
2023-04-05T19:50:00.370Z,101986.94
2023-04-05T19:55:27.061Z,101980.03
2023-04-05T20:00:36.303Z,101989.91
2023-04-05T20:06:04.942Z,101984.47
2023-04-05T20:11:12.679Z,101976.63
2023-04-05T20:16:17.231Z,101982.03
2023-04-05T20:21:20.480Z,101970.56
2023-04-05T20:26:28.321Z,101967.41
2023-04-05T20:31:32.661Z,101962.28
2023-04-05T20:36:38.162Z,101964.28
2023-04-05T20:41:43.210Z,101945.31
2023-04-05T20:46:46.754Z,101942.88
2023-04-05T20:51:50.947Z,101957.31
2023-04-05T20:56:55.782Z,101945.31
2023-04-05T21:01:59.042Z,101943.75
2023-04-05T21:07:02.533Z,101947.53
2023-04-05T21:12:08.108Z,101937.25
2023-04-05T21:17:11.528Z,101922.00
2023-04-05T21:22:14.825Z,101929.59
2023-04-05T21:27:19.658Z,101927.22
2023-04-05T21:32:22.810Z,101921.88
2023-04-05T21:37:27.704Z,101926.91
2023-04-05T21:42:35.200Z,101929.75
2023-04-05T21:47:38.599Z,101934.84
2023-04-05T21:52:41.664Z,101924.94
2023-04-05T21:57:46.254Z,101921.25
2023-04-05T22:02:51.755Z,101933.50
2023-04-05T22:07:55.047Z,101917.84
2023-04-05T22:12:59.648Z,101926.00
2023-04-05T22:18:04.001Z,101915.56
2023-04-05T22:23:07.210Z,101909.81
2023-04-05T22:28:11.836Z,101910.03
2023-04-05T22:33:14.988Z,101907.84
2023-04-05T22:38:18.898Z,101906.03
2023-04-05T22:43:24.152Z,101902.41
2023-04-05T22:48:27.715Z,101893.13
2023-04-05T22:53:30.773Z,101889.72
2023-04-05T22:58:35.442Z,101883.03
2023-04-05T23:03:38.624Z,101892.56
2023-04-05T23:08:41.876Z,101875.00
2023-04-05T23:13:46.482Z,101871.94
2023-04-05T23:18:50.750Z,101867.97
2023-04-05T23:23:53.839Z,101853.47
2023-04-05T23:28:59.041Z,101866.63
2023-04-05T23:34:02.416Z,101854.81
2023-04-05T23:39:05.444Z,101850.31
2023-04-05T23:44:09.935Z,101844.84
2023-04-05T23:49:13.027Z,101843.63
2023-04-05T23:54:16.123Z,101837.41
2023-04-05T23:59:20.977Z,101840.66
